sensor_id;sensor_type;location;lat;lon;timestamp;pressure;altitude;pressure_sealevel;temperature;humidity
80248;BME280;69560;52.206;21.018;2023-06-22T00:00:38;100217.44;;;23.88;57.87
80248;BME280;69560;52.206;21.018;2023-06-22T00:03:28;100221.88;;;23.86;57.85
80248;BME280;69560;52.206;21.018;2023-06-22T00:06:03;100224.11;;;23.83;57.85
80248;BME280;69560;52.206;21.018;2023-06-22T00:08:35;100225.52;;;23.79;57.97
80248;BME280;69560;52.206;21.018;2023-06-22T00:11:05;100226.34;;;23.75;57.95
80248;BME280;69560;52.206;21.018;2023-06-22T00:13:39;100232.18;;;23.69;57.91
80248;BME280;69560;52.206;21.018;2023-06-22T00:16:19;100230.54;;;23.64;58.07
80248;BME280;69560;52.206;21.018;2023-06-22T00:18:46;100233.41;;;23.62;58.12
80248;BME280;69560;52.206;21.018;2023-06-22T00:21:24;100229.30;;;23.59;58.12
80248;BME280;69560;52.206;21.018;2023-06-22T00:23:54;100230.82;;;23.55;58.15
80248;BME280;69560;52.206;21.018;2023-06-22T00:26:28;100222.38;;;23.53;58.38
80248;BME280;69560;52.206;21.018;2023-06-22T00:28:55;100222.83;;;23.52;58.41
80248;BME280;69560;52.206;21.018;2023-06-22T00:31:28;100222.66;;;23.50;58.35
80248;BME280;69560;52.206;21.018;2023-06-22T00:33:55;100222.55;;;23.49;58.49
80248;BME280;69560;52.206;21.018;2023-06-22T00:36:24;100223.52;;;23.49;58.41
80248;BME280;69560;52.206;21.018;2023-06-22T00:38:59;100222.27;;;23.47;58.37
80248;BME280;69560;52.206;21.018;2023-06-22T00:41:26;100218.95;;;23.45;58.38
80248;BME280;69560;52.206;21.018;2023-06-22T00:44:02;100219.23;;;23.44;58.46
80248;BME280;69560;52.206;21.018;2023-06-22T00:46:38;100220.77;;;23.44;58.49
80248;BME280;69560;52.206;21.018;2023-06-22T00:49:11;100218.05;;;23.41;58.51
80248;BME280;69560;52.206;21.018;2023-06-22T00:51:38;100220.59;;;23.40;58.70
80248;BME280;69560;52.206;21.018;2023-06-22T00:54:05;100221.02;;;23.41;58.71
80248;BME280;69560;52.206;21.018;2023-06-22T00:56:44;100220.80;;;23.45;58.85
80248;BME280;69560;52.206;21.018;2023-06-22T00:59:15;100214.96;;;23.48;58.86
80248;BME280;69560;52.206;21.018;2023-06-22T01:01:47;100214.73;;;23.50;58.84
80248;BME280;69560;52.206;21.018;2023-06-22T01:04:14;100210.92;;;23.50;58.78
80248;BME280;69560;52.206;21.018;2023-06-22T01:08:04;100203.39;;;23.51;58.84
80248;BME280;69560;52.206;21.018;2023-06-22T01:10:17;100197.91;;;23.52;58.97
80248;BME280;69560;52.206;21.018;2023-06-22T01:13:10;100191.85;;;23.52;59.13
80248;BME280;69560;52.206;21.018;2023-06-22T01:15:55;100189.34;;;23.52;59.01
80248;BME280;69560;52.206;21.018;2023-06-22T01:18:32;100186.36;;;23.54;59.13
80248;BME280;69560;52.206;21.018;2023-06-22T01:21:06;100189.08;;;23.55;59.07
80248;BME280;69560;52.206;21.018;2023-06-22T01:23:39;100194.52;;;23.55;59.09
80248;BME280;69560;52.206;21.018;2023-06-22T01:26:22;100187.89;;;23.55;59.19
80248;BME280;69560;52.206;21.018;2023-06-22T01:28:57;100183.77;;;23.55;59.14
80248;BME280;69560;52.206;21.018;2023-06-22T01:31:27;100183.27;;;23.53;59.11
80248;BME280;69560;52.206;21.018;2023-06-22T01:33:59;100178.02;;;23.50;59.13
80248;BME280;69560;52.206;21.018;2023-06-22T01:36:31;100175.83;;;23.50;59.20
80248;BME280;69560;52.206;21.018;2023-06-22T01:38:59;100171.84;;;23.51;59.24
80248;BME280;69560;52.206;21.018;2023-06-22T01:41:28;100174.21;;;23.50;59.23
80248;BME280;69560;52.206;21.018;2023-06-22T01:44:00;100174.47;;;23.50;59.30
80248;BME280;69560;52.206;21.018;2023-06-22T01:46:28;100175.27;;;23.48;59.34
80248;BME280;69560;52.206;21.018;2023-06-22T01:48:55;100173.77;;;23.46;59.45
80248;BME280;69560;52.206;21.018;2023-06-22T01:51:25;100176.30;;;23.44;59.49
80248;BME280;69560;52.206;21.018;2023-06-22T01:53:52;100182.45;;;23.41;59.44
80248;BME280;69560;52.206;21.018;2023-06-22T01:56:19;100183.43;;;23.38;59.45
80248;BME280;69560;52.206;21.018;2023-06-22T01:58:54;100184.77;;;23.37;59.50
80248;BME280;69560;52.206;21.018;2023-06-22T02:01:54;100183.35;;;23.36;59.58
80248;BME280;69560;52.206;21.018;2023-06-22T02:04:35;100191.48;;;23.35;59.67
80248;BME280;69560;52.206;21.018;2023-06-22T02:07:07;100185.96;;;23.36;59.95
80248;BME280;69560;52.206;21.018;2023-06-22T02:09:38;100192.02;;;23.38;60.11
80248;BME280;69560;52.206;21.018;2023-06-22T02:12:10;100207.69;;;23.41;60.18
80248;BME280;69560;52.206;21.018;2023-06-22T02:14:44;100214.89;;;23.45;60.27
80248;BME280;69560;52.206;21.018;2023-06-22T02:17:14;100219.00;;;23.48;60.22
80248;BME280;69560;52.206;21.018;2023-06-22T02:19:41;100221.80;;;23.49;60.16
80248;BME280;69560;52.206;21.018;2023-06-22T02:22:08;100229.42;;;23.48;60.24
80248;BME280;69560;52.206;21.018;2023-06-22T02:24:35;100230.25;;;23.48;60.19
80248;BME280;69560;52.206;21.018;2023-06-22T02:27:02;100232.83;;;23.46;60.23
80248;BME280;69560;52.206;21.018;2023-06-22T02:29:35;100234.89;;;23.45;60.37
80248;BME280;69560;52.206;21.018;2023-06-22T02:32:14;100238.80;;;23.44;60.41
80248;BME280;69560;52.206;21.018;2023-06-22T02:34:44;100239.58;;;23.42;60.31
80248;BME280;69560;52.206;21.018;2023-06-22T02:37:14;100247.58;;;23.43;60.40
80248;BME280;69560;52.206;21.018;2023-06-22T02:39:46;100246.67;;;23.43;60.49
80248;BME280;69560;52.206;21.018;2023-06-22T02:42:23;100250.73;;;23.42;60.56
80248;BME280;69560;52.206;21.018;2023-06-22T02:44:51;100253.77;;;23.41;60.58
80248;BME280;69560;52.206;21.018;2023-06-22T02:47:18;100255.00;;;23.38;60.62
80248;BME280;69560;52.206;21.018;2023-06-22T02:49:45;100256.14;;;23.38;60.77
80248;BME280;69560;52.206;21.018;2023-06-22T02:52:15;100262.35;;;23.39;60.66
80248;BME280;69560;52.206;21.018;2023-06-22T02:54:41;100266.23;;;23.41;60.82
80248;BME280;69560;52.206;21.018;2023-06-22T02:57:08;100265.52;;;23.43;60.81
80248;BME280;69560;52.206;21.018;2023-06-22T02:59:42;100265.58;;;23.44;60.80
80248;BME280;69560;52.206;21.018;2023-06-22T03:02:15;100273.07;;;23.44;60.91
80248;BME280;69560;52.206;21.018;2023-06-22T03:04:44;100268.83;;;23.45;60.84
80248;BME280;69560;52.206;21.018;2023-06-22T03:07:13;100277.14;;;23.46;60.94
80248;BME280;69560;52.206;21.018;2023-06-22T03:09:40;100280.75;;;23.45;60.97
80248;BME280;69560;52.206;21.018;2023-06-22T03:12:09;100274.39;;;23.41;60.81
80248;BME280;69560;52.206;21.018;2023-06-22T03:14:36;100279.73;;;23.41;60.86
80248;BME280;69560;52.206;21.018;2023-06-22T03:17:06;100282.44;;;23.42;61.13
80248;BME280;69560;52.206;21.018;2023-06-22T03:19:33;100285.30;;;23.41;61.12
80248;BME280;69560;52.206;21.018;2023-06-22T03:22:07;100290.02;;;23.38;61.12
80248;BME280;69560;52.206;21.018;2023-06-22T03:24:34;100296.63;;;23.36;61.19
80248;BME280;69560;52.206;21.018;2023-06-22T03:27:03;100295.00;;;23.37;61.17
80248;BME280;69560;52.206;21.018;2023-06-22T03:29:32;100292.27;;;23.38;61.27
80248;BME280;69560;52.206;21.018;2023-06-22T03:31:59;100290.80;;;23.39;61.21
80248;BME280;69560;52.206;21.018;2023-06-22T03:34:25;100290.02;;;23.40;61.18
80248;BME280;69560;52.206;21.018;2023-06-22T03:36:52;100293.05;;;23.42;61.29
80248;BME280;69560;52.206;21.018;2023-06-22T03:39:26;100292.66;;;23.44;61.40
80248;BME280;69560;52.206;21.018;2023-06-22T03:41:56;100291.88;;;23.45;61.35
80248;BME280;69560;52.206;21.018;2023-06-22T03:44:26;100295.85;;;23.45;61.33
80248;BME280;69560;52.206;21.018;2023-06-22T03:46:53;100297.42;;;23.47;61.43
80248;BME280;69560;52.206;21.018;2023-06-22T03:49:19;100299.84;;;23.50;61.46
80248;BME280;69560;52.206;21.018;2023-06-22T03:51:46;100311.33;;;23.51;61.39
80248;BME280;69560;52.206;21.018;2023-06-22T03:54:13;100315.39;;;23.53;61.43
80248;BME280;69560;52.206;21.018;2023-06-22T03:56:40;100318.40;;;23.56;61.51
80248;BME280;69560;52.206;21.018;2023-06-22T03:59:06;100318.48;;;23.58;61.51
80248;BME280;69560;52.206;21.018;2023-06-22T04:01:33;100317.91;;;23.58;61.42
80248;BME280;69560;52.206;21.018;2023-06-22T04:04:00;100324.30;;;23.58;61.43
80248;BME280;69560;52.206;21.018;2023-06-22T04:06:26;100324.81;;;23.59;61.46
80248;BME280;69560;52.206;21.018;2023-06-22T04:08:53;100325.19;;;23.61;61.45
80248;BME280;69560;52.206;21.018;2023-06-22T04:11:20;100323.30;;;23.61;61.38
80248;BME280;69560;52.206;21.018;2023-06-22T04:13:46;100322.33;;;23.61;61.42
80248;BME280;69560;52.206;21.018;2023-06-22T04:16:15;100325.89;;;23.61;61.43
80248;BME280;69560;52.206;21.018;2023-06-22T04:18:45;100327.95;;;23.63;61.51
80248;BME280;69560;52.206;21.018;2023-06-22T04:21:12;100331.04;;;23.63;61.41
80248;BME280;69560;52.206;21.018;2023-06-22T04:23:39;100335.27;;;23.64;61.43
80248;BME280;69560;52.206;21.018;2023-06-22T04:26:06;100336.71;;;23.67;61.51
80248;BME280;69560;52.206;21.018;2023-06-22T04:28:33;100340.25;;;23.70;61.50
80248;BME280;69560;52.206;21.018;2023-06-22T04:31:02;100336.64;;;23.71;61.48
80248;BME280;69560;52.206;21.018;2023-06-22T04:33:30;100338.36;;;23.70;61.42
80248;BME280;69560;52.206;21.018;2023-06-22T04:35:57;100339.73;;;23.70;61.46
80248;BME280;69560;52.206;21.018;2023-06-22T04:38:25;100345.00;;;23.71;61.46
80248;BME280;69560;52.206;21.018;2023-06-22T04:40:53;100341.07;;;23.72;61.58
80248;BME280;69560;52.206;21.018;2023-06-22T04:43:23;100340.52;;;23.77;61.57
80248;BME280;69560;52.206;21.018;2023-06-22T04:45:50;100342.51;;;23.80;61.53
80248;BME280;69560;52.206;21.018;2023-06-22T04:48:18;100340.62;;;23.83;61.52
80248;BME280;69560;52.206;21.018;2023-06-22T04:50:45;100341.24;;;23.86;61.59
80248;BME280;69560;52.206;21.018;2023-06-22T04:53:12;100333.63;;;23.89;61.52
80248;BME280;69560;52.206;21.018;2023-06-22T04:55:39;100334.89;;;23.90;61.47
80248;BME280;69560;52.206;21.018;2023-06-22T04:58:19;100337.58;;;23.89;61.36
80248;BME280;69560;52.206;21.018;2023-06-22T05:00:47;100339.17;;;23.90;61.28
80248;BME280;69560;52.206;21.018;2023-06-22T05:03:14;100338.31;;;23.91;61.24
80248;BME280;69560;52.206;21.018;2023-06-22T05:05:44;100339.81;;;23.93;61.25
80248;BME280;69560;52.206;21.018;2023-06-22T05:08:15;100336.50;;;23.95;61.18
80248;BME280;69560;52.206;21.018;2023-06-22T05:10:45;100338.09;;;23.96;61.26
80248;BME280;69560;52.206;21.018;2023-06-22T05:13:12;100337.47;;;23.95;61.16
80248;BME280;69560;52.206;21.018;2023-06-22T05:15:39;100341.39;;;23.94;61.07
80248;BME280;69560;52.206;21.018;2023-06-22T05:18:06;100338.77;;;23.90;60.98
80248;BME280;69560;52.206;21.018;2023-06-22T05:20:33;100337.70;;;23.90;61.09
80248;BME280;69560;52.206;21.018;2023-06-22T05:23:02;100339.52;;;23.92;61.14
80248;BME280;69560;52.206;21.018;2023-06-22T05:25:29;100339.02;;;23.95;61.16
80248;BME280;69560;52.206;21.018;2023-06-22T05:27:59;100342.30;;;23.96;61.08
80248;BME280;69560;52.206;21.018;2023-06-22T05:30:26;100349.87;;;23.97;61.08
80248;BME280;69560;52.206;21.018;2023-06-22T05:32:53;100350.65;;;23.98;61.09
80248;BME280;69560;52.206;21.018;2023-06-22T05:35:20;100350.60;;;23.99;61.11
80248;BME280;69560;52.206;21.018;2023-06-22T05:37:49;100353.16;;;24.00;61.10
80248;BME280;69560;52.206;21.018;2023-06-22T05:40:19;100360.08;;;24.02;61.16
80248;BME280;69560;52.206;21.018;2023-06-22T05:42:47;100358.98;;;24.04;61.08
80248;BME280;69560;52.206;21.018;2023-06-22T05:45:14;100364.77;;;24.07;61.12
80248;BME280;69560;52.206;21.018;2023-06-22T05:47:40;100371.86;;;24.11;61.03
80248;BME280;69560;52.206;21.018;2023-06-22T05:50:07;100373.21;;;24.14;61.17
80248;BME280;69560;52.206;21.018;2023-06-22T05:52:36;100371.84;;;24.13;60.94
80248;BME280;69560;52.206;21.018;2023-06-22T05:55:06;100374.99;;;24.09;60.85
80248;BME280;69560;52.206;21.018;2023-06-22T05:57:33;100374.11;;;24.06;60.80
80248;BME280;69560;52.206;21.018;2023-06-22T06:00:00;100376.73;;;24.05;60.90
80248;BME280;69560;52.206;21.018;2023-06-22T06:02:32;100382.02;;;24.07;60.85
80248;BME280;69560;52.206;21.018;2023-06-22T06:05:00;100379.95;;;24.08;60.77
80248;BME280;69560;52.206;21.018;2023-06-22T06:07:29;100373.52;;;24.07;60.68
80248;BME280;69560;52.206;21.018;2023-06-22T06:09:56;100371.52;;;24.08;60.77
80248;BME280;69560;52.206;21.018;2023-06-22T06:12:26;100372.51;;;24.13;60.89
80248;BME280;69560;52.206;21.018;2023-06-22T06:14:53;100379.05;;;24.16;60.90
80248;BME280;69560;52.206;21.018;2023-06-22T06:17:21;100389.88;;;24.19;60.97
80248;BME280;69560;52.206;21.018;2023-06-22T06:19:48;100390.36;;;24.19;60.81
80248;BME280;69560;52.206;21.018;2023-06-22T06:22:15;100399.73;;;24.20;60.77
80248;BME280;69560;52.206;21.018;2023-06-22T06:24:42;100401.44;;;24.22;60.75
80248;BME280;69560;52.206;21.018;2023-06-22T06:27:14;100402.08;;;24.22;60.66
80248;BME280;69560;52.206;21.018;2023-06-22T06:29:55;100398.58;;;24.22;60.60
80248;BME280;69560;52.206;21.018;2023-06-22T06:32:22;100391.61;;;24.18;60.36
80248;BME280;69560;52.206;21.018;2023-06-22T06:34:49;100392.58;;;24.11;60.32
80248;BME280;69560;52.206;21.018;2023-06-22T06:37:16;100394.42;;;24.09;60.62
80248;BME280;69560;52.206;21.018;2023-06-22T06:39:44;100392.06;;;24.09;60.79
80248;BME280;69560;52.206;21.018;2023-06-22T06:42:11;100396.06;;;24.11;60.71
80248;BME280;69560;52.206;21.018;2023-06-22T06:44:38;100396.09;;;24.10;60.69
80248;BME280;69560;52.206;21.018;2023-06-22T06:47:04;100399.05;;;24.13;60.75
80248;BME280;69560;52.206;21.018;2023-06-22T06:49:32;100398.61;;;24.12;60.58
80248;BME280;69560;52.206;21.018;2023-06-22T06:51:59;100395.11;;;24.13;60.67
80248;BME280;69560;52.206;21.018;2023-06-22T06:54:28;100394.77;;;24.13;60.65
80248;BME280;69560;52.206;21.018;2023-06-22T06:57:01;100388.38;;;24.13;60.59
80248;BME280;69560;52.206;21.018;2023-06-22T06:59:29;100388.54;;;24.13;60.73
80248;BME280;69560;52.206;21.018;2023-06-22T07:01:56;100390.03;;;24.19;60.79
80248;BME280;69560;52.206;21.018;2023-06-22T07:04:23;100390.18;;;24.26;60.94
80248;BME280;69560;52.206;21.018;2023-06-22T07:06:50;100390.14;;;24.35;60.95
80248;BME280;69560;52.206;21.018;2023-06-22T07:09:17;100388.84;;;24.44;60.78
80248;BME280;69560;52.206;21.018;2023-06-22T07:11:47;100387.27;;;24.51;60.77
80248;BME280;69560;52.206;21.018;2023-06-22T07:14:14;100381.95;;;24.55;60.68
80248;BME280;69560;52.206;21.018;2023-06-22T07:16:40;100381.35;;;24.59;60.59
80248;BME280;69560;52.206;21.018;2023-06-22T07:19:27;100382.89;;;24.74;61.30
80248;BME280;69560;52.206;21.018;2023-06-22T07:22:14;100396.89;;;25.37;61.92
80248;BME280;69560;52.206;21.018;2023-06-22T07:24:41;100394.73;;;25.98;61.65
80248;BME280;69560;52.206;21.018;2023-06-22T07:27:07;100397.28;;;26.47;60.39
80248;BME280;69560;52.206;21.018;2023-06-22T07:29:37;100400.17;;;26.66;59.32
80248;BME280;69560;52.206;21.018;2023-06-22T07:32:06;100403.08;;;26.71;58.45
80248;BME280;69560;52.206;21.018;2023-06-22T07:34:33;100402.02;;;26.73;57.97
80248;BME280;69560;52.206;21.018;2023-06-22T07:37:03;100409.46;;;26.72;57.58
80248;BME280;69560;52.206;21.018;2023-06-22T07:39:31;100410.29;;;26.73;57.40
80248;BME280;69560;52.206;21.018;2023-06-22T07:42:01;100409.12;;;26.81;57.15
80248;BME280;69560;52.206;21.018;2023-06-22T07:44:27;100406.96;;;26.91;56.91
80248;BME280;69560;52.206;21.018;2023-06-22T07:47:00;100403.52;;;27.03;56.77
80248;BME280;69560;52.206;21.018;2023-06-22T07:49:27;100400.41;;;27.16;56.43
80248;BME280;69560;52.206;21.018;2023-06-22T07:51:54;100404.61;;;27.29;56.02
80248;BME280;69560;52.206;21.018;2023-06-22T07:54:21;100401.55;;;27.40;55.67
80248;BME280;69560;52.206;21.018;2023-06-22T07:57:09;100397.63;;;27.51;55.32
80248;BME280;69560;52.206;21.018;2023-06-22T07:59:35;100409.77;;;27.64;55.05
80248;BME280;69560;52.206;21.018;2023-06-22T08:02:05;100412.98;;;27.75;54.81
80248;BME280;69560;52.206;21.018;2023-06-22T08:04:35;100409.63;;;27.86;54.27
80248;BME280;69560;52.206;21.018;2023-06-22T08:07:05;100411.42;;;27.95;53.97
80248;BME280;69560;52.206;21.018;2023-06-22T08:09:32;100411.34;;;28.06;53.63
80248;BME280;69560;52.206;21.018;2023-06-22T08:11:59;100407.58;;;28.23;53.10
80248;BME280;69560;52.206;21.018;2023-06-22T08:14:26;100408.61;;;28.42;52.90
80248;BME280;69560;52.206;21.018;2023-06-22T08:16:54;100406.04;;;28.61;52.37
80248;BME280;69560;52.206;21.018;2023-06-22T08:19:21;100400.31;;;28.80;52.09
80248;BME280;69560;52.206;21.018;2023-06-22T08:21:47;100402.67;;;29.02;51.51
80248;BME280;69560;52.206;21.018;2023-06-22T08:24:17;100402.77;;;29.24;51.05
80248;BME280;69560;52.206;21.018;2023-06-22T08:26:51;100404.13;;;29.40;50.41
80248;BME280;69560;52.206;21.018;2023-06-22T08:29:21;100403.79;;;29.59;50.08
80248;BME280;69560;52.206;21.018;2023-06-22T08:31:50;100402.48;;;29.74;49.63
80248;BME280;69560;52.206;21.018;2023-06-22T08:34:17;100403.33;;;29.90;49.03
80248;BME280;69560;52.206;21.018;2023-06-22T08:36:48;100404.30;;;30.07;48.67
80248;BME280;69560;52.206;21.018;2023-06-22T08:39:19;100405.94;;;30.29;48.19
80248;BME280;69560;52.206;21.018;2023-06-22T08:41:48;100405.78;;;30.50;47.66
80248;BME280;69560;52.206;21.018;2023-06-22T08:44:18;100404.23;;;30.63;46.98
80248;BME280;69560;52.206;21.018;2023-06-22T08:46:45;100403.52;;;30.73;46.63
80248;BME280;69560;52.206;21.018;2023-06-22T08:49:15;100405.86;;;30.90;46.26
80248;BME280;69560;52.206;21.018;2023-06-22T08:51:42;100410.27;;;31.05;45.75
80248;BME280;69560;52.206;21.018;2023-06-22T08:54:11;100408.73;;;31.13;45.36
80248;BME280;69560;52.206;21.018;2023-06-22T08:56:40;100411.71;;;31.19;44.67
80248;BME280;69560;52.206;21.018;2023-06-22T08:59:07;100417.13;;;31.29;44.64
80248;BME280;69560;52.206;21.018;2023-06-22T09:01:33;100419.59;;;31.43;44.51
80248;BME280;69560;52.206;21.018;2023-06-22T09:04:00;100417.09;;;31.54;44.07
80248;BME280;69560;52.206;21.018;2023-06-22T09:06:27;100422.53;;;31.64;43.87
80248;BME280;69560;52.206;21.018;2023-06-22T09:08:53;100423.24;;;31.67;43.46
80248;BME280;69560;52.206;21.018;2023-06-22T09:11:20;100428.48;;;31.71;42.96
80248;BME280;69560;52.206;21.018;2023-06-22T09:13:49;100425.73;;;31.59;42.61
80248;BME280;69560;52.206;21.018;2023-06-22T09:16:17;100421.84;;;31.56;42.59
80248;BME280;69560;52.206;21.018;2023-06-22T09:18:47;100422.53;;;31.58;42.29
80248;BME280;69560;52.206;21.018;2023-06-22T09:21:14;100419.16;;;31.48;41.84
80248;BME280;69560;52.206;21.018;2023-06-22T09:23:41;100416.51;;;31.53;42.09
80248;BME280;69560;52.206;21.018;2023-06-22T09:26:08;100406.59;;;31.65;41.89
80248;BME280;69560;52.206;21.018;2023-06-22T09:28:35;100403.17;;;31.67;41.36
80248;BME280;69560;52.206;21.018;2023-06-22T09:31:01;100401.11;;;31.71;41.15
80248;BME280;69560;52.206;21.018;2023-06-22T09:33:28;100399.27;;;31.77;41.23
80248;BME280;69560;52.206;21.018;2023-06-22T09:35:55;100398.48;;;31.91;41.15
80248;BME280;69560;52.206;21.018;2023-06-22T09:38:22;100402.41;;;32.00;40.61
80248;BME280;69560;52.206;21.018;2023-06-22T09:40:49;100396.52;;;32.08;40.47
80248;BME280;69560;52.206;21.018;2023-06-22T09:43:16;100393.34;;;32.19;39.98
80248;BME280;69560;52.206;21.018;2023-06-22T09:45:45;100395.63;;;32.25;39.60
80248;BME280;69560;52.206;21.018;2023-06-22T09:48:17;100399.73;;;32.25;39.14
80248;BME280;69560;52.206;21.018;2023-06-22T09:50:44;100399.58;;;32.22;38.89
80248;BME280;69560;52.206;21.018;2023-06-22T09:53:11;100399.48;;;32.25;38.99
80248;BME280;69560;52.206;21.018;2023-06-22T09:55:38;100393.58;;;32.41;38.86
80248;BME280;69560;52.206;21.018;2023-06-22T09:58:08;100393.73;;;32.46;38.21
80248;BME280;69560;52.206;21.018;2023-06-22T10:00:35;100390.00;;;32.52;37.79
80248;BME280;69560;52.206;21.018;2023-06-22T10:03:04;100394.59;;;32.54;37.53
80248;BME280;69560;52.206;21.018;2023-06-22T10:05:31;100394.88;;;32.59;37.24
80248;BME280;69560;52.206;21.018;2023-06-22T10:07:58;100396.81;;;32.70;36.89
80248;BME280;69560;52.206;21.018;2023-06-22T10:10:25;100401.45;;;32.84;36.72
80248;BME280;69560;52.206;21.018;2023-06-22T10:12:56;100401.59;;;33.02;36.30
80248;BME280;69560;52.206;21.018;2023-06-22T10:15:24;100401.11;;;33.16;35.98
80248;BME280;69560;52.206;21.018;2023-06-22T10:17:53;100403.84;;;33.29;35.87
80248;BME280;69560;52.206;21.018;2023-06-22T10:20:19;100402.61;;;33.48;35.74
80248;BME280;69560;52.206;21.018;2023-06-22T10:22:49;100401.59;;;33.60;35.61
80248;BME280;69560;52.206;21.018;2023-06-22T10:25:21;100398.35;;;33.72;35.19
80248;BME280;69560;52.206;21.018;2023-06-22T10:27:48;100400.17;;;33.67;35.30
80248;BME280;69560;52.206;21.018;2023-06-22T10:30:17;100401.37;;;33.74;35.25
80248;BME280;69560;52.206;21.018;2023-06-22T10:32:44;100401.05;;;33.85;35.12
80248;BME280;69560;52.206;21.018;2023-06-22T10:35:11;100395.40;;;33.87;35.03
80248;BME280;69560;52.206;21.018;2023-06-22T10:37:40;100390.12;;;33.96;34.75
80248;BME280;69560;52.206;21.018;2023-06-22T10:40:09;100382.50;;;34.05;34.56
80248;BME280;69560;52.206;21.018;2023-06-22T10:42:36;100378.71;;;34.10;34.53
80248;BME280;69560;52.206;21.018;2023-06-22T10:45:07;100382.15;;;34.17;34.25
80248;BME280;69560;52.206;21.018;2023-06-22T10:47:34;100380.70;;;34.27;34.22
80248;BME280;69560;52.206;21.018;2023-06-22T10:50:02;100378.38;;;34.33;34.27
80248;BME280;69560;52.206;21.018;2023-06-22T10:52:29;100384.97;;;34.36;34.17
80248;BME280;69560;52.206;21.018;2023-06-22T10:55:04;100381.19;;;34.38;33.77
80248;BME280;69560;52.206;21.018;2023-06-22T10:57:31;100376.96;;;34.34;33.22
80248;BME280;69560;52.206;21.018;2023-06-22T11:00:01;100375.66;;;34.31;33.12
80248;BME280;69560;52.206;21.018;2023-06-22T11:02:32;100375.70;;;34.31;33.24
80248;BME280;69560;52.206;21.018;2023-06-22T11:04:59;100369.52;;;34.38;33.08
80248;BME280;69560;52.206;21.018;2023-06-22T11:07:29;100369.44;;;34.44;32.78
80248;BME280;69560;52.206;21.018;2023-06-22T11:09:56;100371.02;;;34.50;32.72
80248;BME280;69560;52.206;21.018;2023-06-22T11:12:37;100369.73;;;34.57;32.96
80248;BME280;69560;52.206;21.018;2023-06-22T11:15:04;100365.70;;;34.70;32.88
80248;BME280;69560;52.206;21.018;2023-06-22T11:17:36;100364.94;;;34.73;32.56
80248;BME280;69560;52.206;21.018;2023-06-22T11:20:13;100365.02;;;34.66;32.38
80248;BME280;69560;52.206;21.018;2023-06-22T11:22:43;100370.60;;;34.61;32.26
80248;BME280;69560;52.206;21.018;2023-06-22T11:25:10;100369.27;;;34.54;32.14
80248;BME280;69560;52.206;21.018;2023-06-22T11:27:38;100358.91;;;34.64;32.26
80248;BME280;69560;52.206;21.018;2023-06-22T11:30:05;100365.60;;;34.67;32.16
80248;BME280;69560;52.206;21.018;2023-06-22T11:32:33;100359.69;;;34.77;32.08
80248;BME280;69560;52.206;21.018;2023-06-22T11:35:00;100355.61;;;34.83;31.68
80248;BME280;69560;52.206;21.018;2023-06-22T11:37:27;100358.95;;;34.85;31.90
80248;BME280;69560;52.206;21.018;2023-06-22T11:39:54;100358.95;;;34.87;31.79
80248;BME280;69560;52.206;21.018;2023-06-22T11:42:21;100359.81;;;34.81;31.82
80248;BME280;69560;52.206;21.018;2023-06-22T11:44:49;100362.68;;;34.84;31.70
80248;BME280;69560;52.206;21.018;2023-06-22T11:47:16;100361.52;;;34.85;31.43
80248;BME280;69560;52.206;21.018;2023-06-22T11:49:43;100364.26;;;34.82;31.10
80248;BME280;69560;52.206;21.018;2023-06-22T11:52:10;100360.16;;;34.83;31.27
80248;BME280;69560;52.206;21.018;2023-06-22T11:54:36;100365.74;;;34.86;31.19
80248;BME280;69560;52.206;21.018;2023-06-22T11:57:04;100363.15;;;34.91;30.93
80248;BME280;69560;52.206;21.018;2023-06-22T11:59:30;100364.11;;;34.91;30.63
80248;BME280;69560;52.206;21.018;2023-06-22T12:01:57;100363.65;;;34.87;30.63
80248;BME280;69560;52.206;21.018;2023-06-22T12:04:25;100364.47;;;34.82;30.62
80248;BME280;69560;52.206;21.018;2023-06-22T12:06:54;100361.88;;;34.67;30.40
80248;BME280;69560;52.206;21.018;2023-06-22T12:09:21;100362.73;;;34.52;30.50
80248;BME280;69560;52.206;21.018;2023-06-22T12:11:47;100363.65;;;34.37;30.42
80248;BME280;69560;52.206;21.018;2023-06-22T12:14:14;100357.77;;;34.29;30.27
80248;BME280;69560;52.206;21.018;2023-06-22T12:16:40;100359.65;;;34.10;30.24
80248;BME280;69560;52.206;21.018;2023-06-22T12:19:07;100356.36;;;34.10;30.96
80248;BME280;69560;52.206;21.018;2023-06-22T12:21:34;100347.28;;;34.18;31.02
80248;BME280;69560;52.206;21.018;2023-06-22T12:24:04;100356.04;;;34.28;31.04
80248;BME280;69560;52.206;21.018;2023-06-22T12:26:30;100346.08;;;34.38;31.11
80248;BME280;69560;52.206;21.018;2023-06-22T12:28:57;100346.98;;;34.45;30.78
80248;BME280;69560;52.206;21.018;2023-06-22T12:31:24;100344.99;;;34.48;30.63
80248;BME280;69560;52.206;21.018;2023-06-22T12:33:50;100340.95;;;34.53;30.63
80248;BME280;69560;52.206;21.018;2023-06-22T12:36:17;100336.94;;;34.59;30.29
80248;BME280;69560;52.206;21.018;2023-06-22T12:38:44;100342.27;;;34.59;30.33
80248;BME280;69560;52.206;21.018;2023-06-22T12:41:10;100338.86;;;34.62;30.18
80248;BME280;69560;52.206;21.018;2023-06-22T12:43:37;100341.83;;;34.64;30.12
80248;BME280;69560;52.206;21.018;2023-06-22T12:46:04;100338.67;;;34.67;30.01
80248;BME280;69560;52.206;21.018;2023-06-22T12:48:31;100341.34;;;34.71;30.09
80248;BME280;69560;52.206;21.018;2023-06-22T12:51:01;100339.84;;;34.76;29.83